sensor_id;sensor_type;location;lat;lon;timestamp;pressure;altitude;pressure_sealevel;temperature;humidity
30073;BME280;16897;52.422;13.678;2022-07-23T00:03:12;101334.97;;;21.15;44.83
30073;BME280;16897;52.422;13.678;2022-07-23T00:07:14;101341.66;;;21.19;44.79
30073;BME280;16897;52.422;13.678;2022-07-23T00:11:16;101331.19;;;21.18;45.13
30073;BME280;16897;52.422;13.678;2022-07-23T00:15:17;101325.88;;;21.18;44.69
30073;BME280;16897;52.422;13.678;2022-07-23T00:19:19;101311.75;;;21.08;44.75
30073;BME280;16897;52.422;13.678;2022-07-23T00:23:21;101309.94;;;20.98;44.88
30073;BME280;16897;52.422;13.678;2022-07-23T00:27:22;101304.31;;;20.92;44.61
30073;BME280;16897;52.422;13.678;2022-07-23T00:31:24;101297.59;;;20.78;44.58
30073;BME280;16897;52.422;13.678;2022-07-23T00:35:28;101294.66;;;20.71;45.09
30073;BME280;16897;52.422;13.678;2022-07-23T00:39:30;101318.28;;;20.74;44.89
30073;BME280;16897;52.422;13.678;2022-07-23T00:43:31;101306.06;;;20.62;44.96
30073;BME280;16897;52.422;13.678;2022-07-23T00:47:33;101222.09;;;20.01;44.96
30073;BME280;16897;52.422;13.678;2022-07-23T00:51:34;101303.50;;;20.51;44.78
30073;BME280;16897;52.422;13.678;2022-07-23T00:55:36;101261.50;;;20.16;44.93
30073;BME280;16897;52.422;13.678;2022-07-23T00:59:39;101244.41;;;19.99;44.95
30073;BME280;16897;52.422;13.678;2022-07-23T01:03:41;101310.63;;;20.20;44.68
30073;BME280;16897;52.422;13.678;2022-07-23T01:07:42;101317.75;;;20.19;45.19
30073;BME280;16897;52.422;13.678;2022-07-23T01:11:44;101299.63;;;20.15;45.33
30073;BME280;16897;52.422;13.678;2022-07-23T01:15:46;101294.53;;;20.11;45.26
30073;BME280;16897;52.422;13.678;2022-07-23T01:19:47;101294.81;;;20.08;45.57
30073;BME280;16897;52.422;13.678;2022-07-23T01:23:49;101296.38;;;20.11;45.56
30073;BME280;16897;52.422;13.678;2022-07-23T01:27:52;101315.53;;;20.15;45.41
30073;BME280;16897;52.422;13.678;2022-07-23T01:31:54;101298.28;;;20.09;45.35
30073;BME280;16897;52.422;13.678;2022-07-23T01:35:56;101234.22;;;19.73;45.63
30073;BME280;16897;52.422;13.678;2022-07-23T01:39:59;101244.38;;;19.68;45.53
30073;BME280;16897;52.422;13.678;2022-07-23T01:44:01;101218.31;;;19.52;45.48
30073;BME280;16897;52.422;13.678;2022-07-23T01:48:03;101184.19;;;19.28;45.53
30073;BME280;16897;52.422;13.678;2022-07-23T01:52:06;101206.78;;;19.32;45.85
30073;BME280;16897;52.422;13.678;2022-07-23T01:56:16;101194.31;;;19.23;45.88
30073;BME280;16897;52.422;13.678;2022-07-23T02:00:18;101229.91;;;19.51;45.71
30073;BME280;16897;52.422;13.678;2022-07-23T02:04:24;101190.78;;;19.34;45.89
30073;BME280;16897;52.422;13.678;2022-07-23T02:08:26;101212.00;;;19.43;45.74
30073;BME280;16897;52.422;13.678;2022-07-23T02:12:27;101259.44;;;19.67;45.90
30073;BME280;16897;52.422;13.678;2022-07-23T02:16:29;101210.44;;;19.41;45.69
30073;BME280;16897;52.422;13.678;2022-07-23T02:20:36;101271.66;;;19.80;46.19
30073;BME280;16897;52.422;13.678;2022-07-23T02:24:39;101283.41;;;19.87;45.82
30073;BME280;16897;52.422;13.678;2022-07-23T02:28:41;101273.66;;;19.87;46.15
30073;BME280;16897;52.422;13.678;2022-07-23T02:32:42;101258.16;;;19.83;45.71
30073;BME280;16897;52.422;13.678;2022-07-23T02:36:45;101261.91;;;19.80;45.76
30073;BME280;16897;52.422;13.678;2022-07-23T02:40:47;101256.44;;;19.82;45.97
30073;BME280;16897;52.422;13.678;2022-07-23T02:44:50;101270.13;;;19.77;45.97
30073;BME280;16897;52.422;13.678;2022-07-23T02:48:52;101255.69;;;19.70;45.83
30073;BME280;16897;52.422;13.678;2022-07-23T02:52:54;101243.44;;;19.69;46.39
30073;BME280;16897;52.422;13.678;2022-07-23T02:56:55;101261.56;;;19.74;46.36
30073;BME280;16897;52.422;13.678;2022-07-23T03:00:57;101262.56;;;19.73;46.01
30073;BME280;16897;52.422;13.678;2022-07-23T03:05:00;101282.84;;;19.83;46.34
30073;BME280;16897;52.422;13.678;2022-07-23T03:09:03;101268.38;;;19.87;46.31
30073;BME280;16897;52.422;13.678;2022-07-23T03:13:04;101262.78;;;19.91;46.61
30073;BME280;16897;52.422;13.678;2022-07-23T03:17:05;101256.06;;;19.86;46.38
30073;BME280;16897;52.422;13.678;2022-07-23T03:21:07;101264.41;;;19.82;46.16
30073;BME280;16897;52.422;13.678;2022-07-23T03:25:09;101206.44;;;19.46;46.42
30073;BME280;16897;52.422;13.678;2022-07-23T03:29:10;101183.47;;;19.26;46.19
30073;BME280;16897;52.422;13.678;2022-07-23T03:33:13;101155.63;;;19.11;46.63
30073;BME280;16897;52.422;13.678;2022-07-23T03:37:17;101113.16;;;18.91;46.66
30073;BME280;16897;52.422;13.678;2022-07-23T03:41:20;101117.47;;;18.92;46.73
30073;BME280;16897;52.422;13.678;2022-07-23T03:45:21;101123.09;;;18.99;46.75
30073;BME280;16897;52.422;13.678;2022-07-23T03:49:23;101262.34;;;19.85;46.64
30073;BME280;16897;52.422;13.678;2022-07-23T03:53:25;101225.56;;;19.71;46.89
30073;BME280;16897;52.422;13.678;2022-07-23T03:57:27;101258.78;;;19.96;46.97
30073;BME280;16897;52.422;13.678;2022-07-23T04:01:28;101191.53;;;19.45;46.72
30073;BME280;16897;52.422;13.678;2022-07-23T04:05:30;101252.69;;;19.84;46.55
30073;BME280;16897;52.422;13.678;2022-07-23T04:09:50;101252.88;;;19.93;47.05
30073;BME280;16897;52.422;13.678;2022-07-23T04:13:52;101290.22;;;20.10;46.94
30073;BME280;16897;52.422;13.678;2022-07-23T04:17:55;101300.72;;;20.12;46.73
30073;BME280;16897;52.422;13.678;2022-07-23T04:22:01;101201.88;;;19.70;47.04
30073;BME280;16897;52.422;13.678;2022-07-23T04:26:05;101279.06;;;20.07;47.32
30073;BME280;16897;52.422;13.678;2022-07-23T04:30:07;101291.78;;;20.13;46.84
30073;BME280;16897;52.422;13.678;2022-07-23T04:34:09;101285.75;;;20.11;47.10
30073;BME280;16897;52.422;13.678;2022-07-23T04:38:11;101286.09;;;20.18;46.74
30073;BME280;16897;52.422;13.678;2022-07-23T04:42:13;101275.75;;;20.15;47.08
30073;BME280;16897;52.422;13.678;2022-07-23T04:46:16;101298.41;;;20.28;47.42
30073;BME280;16897;52.422;13.678;2022-07-23T04:50:22;101339.69;;;20.21;47.38
30073;BME280;16897;52.422;13.678;2022-07-23T04:54:28;101281.81;;;20.05;47.25
30073;BME280;16897;52.422;13.678;2022-07-23T04:58:30;101275.41;;;20.08;47.19
30073;BME280;16897;52.422;13.678;2022-07-23T05:02:33;101336.41;;;20.08;47.29
30073;BME280;16897;52.422;13.678;2022-07-23T05:06:35;101367.25;;;20.09;47.38
30073;BME280;16897;52.422;13.678;2022-07-23T05:10:36;101292.91;;;19.89;47.16
30073;BME280;16897;52.422;13.678;2022-07-23T05:14:39;101308.72;;;20.01;47.26
30073;BME280;16897;52.422;13.678;2022-07-23T05:18:40;101293.09;;;19.98;47.44
30073;BME280;16897;52.422;13.678;2022-07-23T05:22:42;101299.91;;;19.91;47.47
30073;BME280;16897;52.422;13.678;2022-07-23T05:26:44;101305.47;;;19.87;47.58
30073;BME280;16897;52.422;13.678;2022-07-23T05:30:45;101255.94;;;19.46;47.62
30073;BME280;16897;52.422;13.678;2022-07-23T05:34:49;101323.56;;;19.82;47.51
30073;BME280;16897;52.422;13.678;2022-07-23T05:38:51;101321.41;;;19.76;47.75
30073;BME280;16897;52.422;13.678;2022-07-23T05:42:53;101308.44;;;19.73;47.90
30073;BME280;16897;52.422;13.678;2022-07-23T05:46:54;101315.66;;;19.71;47.79
30073;BME280;16897;52.422;13.678;2022-07-23T05:50:58;101307.72;;;19.50;48.09
30073;BME280;16897;52.422;13.678;2022-07-23T05:55:06;101344.84;;;19.60;48.18
30073;BME280;16897;52.422;13.678;2022-07-23T05:59:09;101354.88;;;19.56;47.75
30073;BME280;16897;52.422;13.678;2022-07-23T06:03:13;101356.53;;;19.57;47.92
30073;BME280;16897;52.422;13.678;2022-07-23T06:07:15;101322.63;;;19.51;47.81
30073;BME280;16897;52.422;13.678;2022-07-23T06:11:18;101302.84;;;19.34;47.99
30073;BME280;16897;52.422;13.678;2022-07-23T06:15:20;101307.09;;;19.26;48.00
30073;BME280;16897;52.422;13.678;2022-07-23T06:19:22;101330.47;;;19.41;48.25
30073;BME280;16897;52.422;13.678;2022-07-23T06:23:27;101226.38;;;18.88;48.30
30073;BME280;16897;52.422;13.678;2022-07-23T06:27:28;101268.31;;;19.24;48.34
30073;BME280;16897;52.422;13.678;2022-07-23T06:31:30;101274.03;;;19.09;48.04
30073;BME280;16897;52.422;13.678;2022-07-23T06:35:32;101245.13;;;18.96;48.05
30073;BME280;16897;52.422;13.678;2022-07-23T06:39:34;101349.13;;;19.51;48.26
30073;BME280;16897;52.422;13.678;2022-07-23T06:43:36;101265.63;;;19.15;48.32
30073;BME280;16897;52.422;13.678;2022-07-23T06:47:42;101251.78;;;19.11;48.59
30073;BME280;16897;52.422;13.678;2022-07-23T06:51:44;101324.19;;;19.54;48.12
30073;BME280;16897;52.422;13.678;2022-07-23T06:55:45;101292.00;;;19.37;48.40
30073;BME280;16897;52.422;13.678;2022-07-23T06:59:49;101325.41;;;19.50;48.14
30073;BME280;16897;52.422;13.678;2022-07-23T07:03:51;101327.59;;;19.44;48.29
30073;BME280;16897;52.422;13.678;2022-07-23T07:07:56;101323.41;;;19.31;48.64
30073;BME280;16897;52.422;13.678;2022-07-23T07:11:57;101321.59;;;19.42;48.59
30073;BME280;16897;52.422;13.678;2022-07-23T07:15:58;101288.34;;;19.17;48.65
30073;BME280;16897;52.422;13.678;2022-07-23T07:20:00;101322.88;;;19.48;48.55
30073;BME280;16897;52.422;13.678;2022-07-23T07:24:01;101295.53;;;19.27;48.35
30073;BME280;16897;52.422;13.678;2022-07-23T07:28:03;101252.88;;;19.09;48.62
30073;BME280;16897;52.422;13.678;2022-07-23T07:32:05;101297.34;;;19.26;48.56
30073;BME280;16897;52.422;13.678;2022-07-23T07:36:07;101319.47;;;19.36;49.00
30073;BME280;16897;52.422;13.678;2022-07-23T07:40:09;101309.09;;;19.33;48.84
30073;BME280;16897;52.422;13.678;2022-07-23T07:44:11;101306.91;;;19.38;48.66
30073;BME280;16897;52.422;13.678;2022-07-23T07:48:12;101314.34;;;19.44;48.96
30073;BME280;16897;52.422;13.678;2022-07-23T07:52:14;101334.84;;;19.63;48.81
30073;BME280;16897;52.422;13.678;2022-07-23T07:56:16;101323.63;;;19.71;48.93
30073;BME280;16897;52.422;13.678;2022-07-23T08:00:21;101235.00;;;19.22;48.87
30073;BME280;16897;52.422;13.678;2022-07-23T08:04:24;101245.66;;;19.32;48.66
30073;BME280;16897;52.422;13.678;2022-07-23T08:08:25;101232.81;;;19.27;49.11
30073;BME280;16897;52.422;13.678;2022-07-23T08:12:27;101262.59;;;19.61;48.71
30073;BME280;16897;52.422;13.678;2022-07-23T08:16:29;101223.44;;;19.44;49.23
30073;BME280;16897;52.422;13.678;2022-07-23T08:20:40;101239.84;;;19.59;48.80
30073;BME280;16897;52.422;13.678;2022-07-23T08:24:42;101228.09;;;19.52;49.19
30073;BME280;16897;52.422;13.678;2022-07-23T08:28:44;101252.34;;;19.68;49.07
30073;BME280;16897;52.422;13.678;2022-07-23T08:36:56;101280.56;;;19.79;49.34
30073;BME280;16897;52.422;13.678;2022-07-23T08:40:58;101238.69;;;19.73;49.34
30073;BME280;16897;52.422;13.678;2022-07-23T08:45:00;101204.97;;;19.75;49.52
30073;BME280;16897;52.422;13.678;2022-07-23T08:49:06;101272.53;;;20.21;49.19
30073;BME280;16897;52.422;13.678;2022-07-23T08:53:07;101233.00;;;20.08;49.39
30073;BME280;16897;52.422;13.678;2022-07-23T08:57:09;101277.91;;;20.40;49.47
30073;BME280;16897;52.422;13.678;2022-07-23T09:01:11;101198.91;;;20.03;49.47
30073;BME280;16897;52.422;13.678;2022-07-23T09:05:14;101295.88;;;20.67;49.76
30073;BME280;16897;52.422;13.678;2022-07-23T09:09:20;101271.28;;;20.65;49.19
30073;BME280;16897;52.422;13.678;2022-07-23T09:13:30;101297.34;;;20.91;49.31
30073;BME280;16897;52.422;13.678;2022-07-23T09:17:40;101343.63;;;21.27;49.60
30073;BME280;16897;52.422;13.678;2022-07-23T09:21:42;101307.28;;;21.18;49.40
30073;BME280;16897;52.422;13.678;2022-07-23T09:25:43;101326.31;;;21.42;49.60
30073;BME280;16897;52.422;13.678;2022-07-23T09:29:55;101325.75;;;21.58;49.45
30073;BME280;16897;52.422;13.678;2022-07-23T09:34:08;101309.81;;;21.58;49.72
30073;BME280;16897;52.422;13.678;2022-07-23T09:38:10;101325.47;;;21.61;49.77
30073;BME280;16897;52.422;13.678;2022-07-23T09:42:17;101329.50;;;21.65;49.89
30073;BME280;16897;52.422;13.678;2022-07-23T09:46:22;101347.56;;;21.72;49.76
30073;BME280;16897;52.422;13.678;2022-07-23T09:50:27;101341.53;;;21.70;49.63
30073;BME280;16897;52.422;13.678;2022-07-23T09:54:36;101353.44;;;21.85;49.27
30073;BME280;16897;52.422;13.678;2022-07-23T09:58:39;101346.94;;;21.97;49.59
30073;BME280;16897;52.422;13.678;2022-07-23T10:02:51;101352.78;;;22.10;49.54
30073;BME280;16897;52.422;13.678;2022-07-23T10:07:06;101364.69;;;22.26;49.66
30073;BME280;16897;52.422;13.678;2022-07-23T10:11:27;101363.16;;;22.23;49.30
30073;BME280;16897;52.422;13.678;2022-07-23T10:15:46;101307.63;;;22.01;49.56
30073;BME280;16897;52.422;13.678;2022-07-23T10:19:47;101346.59;;;22.29;49.38
30073;BME280;16897;52.422;13.678;2022-07-23T10:32:49;101374.53;;;22.53;49.13
30073;BME280;16897;52.422;13.678;2022-07-23T10:37:03;101368.28;;;22.44;49.40
30073;BME280;16897;52.422;13.678;2022-07-23T10:41:08;101378.72;;;22.56;49.24
30073;BME280;16897;52.422;13.678;2022-07-23T10:49:30;101319.84;;;22.31;49.48
30073;BME280;16897;52.422;13.678;2022-07-23T10:57:53;101299.16;;;22.52;49.16
30073;BME280;16897;52.422;13.678;2022-07-23T11:01:54;101356.78;;;22.99;49.41
30073;BME280;16897;52.422;13.678;2022-07-23T11:06:15;101381.03;;;23.24;48.92
30073;BME280;16897;52.422;13.678;2022-07-23T11:19:04;101313.19;;;23.18;49.26
30073;BME280;16897;52.422;13.678;2022-07-23T11:23:06;101300.00;;;23.34;49.04
30073;BME280;16897;52.422;13.678;2022-07-23T11:27:08;101286.41;;;23.46;48.93
30073;BME280;16897;52.422;13.678;2022-07-23T11:31:17;101318.16;;;23.75;48.79
30073;BME280;16897;52.422;13.678;2022-07-23T11:35:27;101231.00;;;23.31;48.95
30073;BME280;16897;52.422;13.678;2022-07-23T11:39:30;101350.97;;;24.27;48.80
30073;BME280;16897;52.422;13.678;2022-07-23T11:43:31;101259.06;;;23.88;48.53
30073;BME280;16897;52.422;13.678;2022-07-23T11:47:33;101306.16;;;24.39;48.69
30073;BME280;16897;52.422;13.678;2022-07-23T11:51:34;101320.13;;;24.67;48.29
30073;BME280;16897;52.422;13.678;2022-07-23T11:55:36;101336.56;;;24.89;48.25
30073;BME280;16897;52.422;13.678;2022-07-23T11:59:38;101293.97;;;24.71;48.05
30073;BME280;16897;52.422;13.678;2022-07-23T12:03:51;101358.00;;;25.13;48.32
30073;BME280;16897;52.422;13.678;2022-07-23T12:07:53;101336.94;;;25.02;48.12
30073;BME280;16897;52.422;13.678;2022-07-23T12:11:59;101354.34;;;25.14;47.99
30073;BME280;16897;52.422;13.678;2022-07-23T12:16:01;101277.72;;;24.64;47.89
30073;BME280;16897;52.422;13.678;2022-07-23T12:20:05;101294.47;;;24.83;47.95
30073;BME280;16897;52.422;13.678;2022-07-23T12:24:07;101289.31;;;24.98;48.06
30073;BME280;16897;52.422;13.678;2022-07-23T12:28:16;101358.56;;;25.50;48.16
30073;BME280;16897;52.422;13.678;2022-07-23T12:32:19;101350.03;;;25.46;48.03
30073;BME280;16897;52.422;13.678;2022-07-23T12:36:21;101299.75;;;25.17;48.01
30073;BME280;16897;52.422;13.678;2022-07-23T12:45:09;101335.66;;;25.47;47.32
30073;BME280;16897;52.422;13.678;2022-07-23T12:49:12;101296.22;;;25.25;47.27
30073;BME280;16897;52.422;13.678;2022-07-23T12:53:30;101337.66;;;25.61;47.59
30073;BME280;16897;52.422;13.678;2022-07-23T12:57:47;101324.78;;;25.49;47.45
30073;BME280;16897;52.422;13.678;2022-07-23T13:01:56;101329.47;;;25.55;47.22
30073;BME280;16897;52.422;13.678;2022-07-23T13:06:00;101339.34;;;25.71;47.75
30073;BME280;16897;52.422;13.678;2022-07-23T13:10:02;101342.84;;;25.88;47.42
30073;BME280;16897;52.422;13.678;2022-07-23T13:14:04;101339.84;;;25.91;47.31
30073;BME280;16897;52.422;13.678;2022-07-23T13:18:05;101349.00;;;26.04;47.38
30073;BME280;16897;52.422;13.678;2022-07-23T13:22:07;101302.84;;;25.78;47.17
30073;BME280;16897;52.422;13.678;2022-07-23T13:26:08;101330.78;;;25.92;47.13
30073;BME280;16897;52.422;13.678;2022-07-23T13:30:10;101302.72;;;25.88;47.25
30073;BME280;16897;52.422;13.678;2022-07-23T13:34:12;101277.94;;;25.77;46.73
30073;BME280;16897;52.422;13.678;2022-07-23T13:38:13;101317.22;;;26.01;46.86
30073;BME280;16897;52.422;13.678;2022-07-23T13:42:15;101311.19;;;25.99;47.15
30073;BME280;16897;52.422;13.678;2022-07-23T13:46:16;101335.75;;;26.11;46.87
30073;BME280;16897;52.422;13.678;2022-07-23T13:50:18;101310.88;;;25.94;46.99
30073;BME280;16897;52.422;13.678;2022-07-23T13:54:20;101234.06;;;25.39;46.73
30073;BME280;16897;52.422;13.678;2022-07-23T13:58:21;101274.47;;;25.60;46.73
30073;BME280;16897;52.422;13.678;2022-07-23T14:02:23;101276.47;;;25.58;46.84
30073;BME280;16897;52.422;13.678;2022-07-23T14:06:24;101301.53;;;25.74;47.01
30073;BME280;16897;52.422;13.678;2022-07-23T14:10:26;101312.75;;;25.86;46.81
30073;BME280;16897;52.422;13.678;2022-07-23T14:14:27;101245.09;;;25.44;46.68
30073;BME280;16897;52.422;13.678;2022-07-23T14:18:29;101300.50;;;25.83;46.58
30073;BME280;16897;52.422;13.678;2022-07-23T14:22:34;101291.81;;;25.81;46.68
30073;BME280;16897;52.422;13.678;2022-07-23T14:26:36;101294.50;;;25.89;46.67
30073;BME280;16897;52.422;13.678;2022-07-23T14:30:37;101284.09;;;26.02;46.31
30073;BME280;16897;52.422;13.678;2022-07-23T14:34:38;101312.78;;;26.33;46.59
30073;BME280;16897;52.422;13.678;2022-07-23T14:38:39;101254.97;;;26.08;46.08
30073;BME280;16897;52.422;13.678;2022-07-23T14:42:41;101266.56;;;26.31;46.10
30073;BME280;16897;52.422;13.678;2022-07-23T14:46:42;101205.78;;;26.09;46.19
30073;BME280;16897;52.422;13.678;2022-07-23T14:50:44;101249.09;;;26.43;45.80
30073;BME280;16897;52.422;13.678;2022-07-23T14:54:45;101263.59;;;26.65;46.13
30073;BME280;16897;52.422;13.678;2022-07-23T14:58:48;101199.84;;;26.21;45.73
30073;BME280;16897;52.422;13.678;2022-07-23T15:02:50;101251.06;;;26.58;46.11
30073;BME280;16897;52.422;13.678;2022-07-23T15:06:52;101302.72;;;26.98;45.71
30073;BME280;16897;52.422;13.678;2022-07-23T15:10:54;101284.66;;;26.91;45.35
30073;BME280;16897;52.422;13.678;2022-07-23T15:14:55;101305.34;;;27.06;45.50
30073;BME280;16897;52.422;13.678;2022-07-23T15:18:57;101278.94;;;26.95;45.25
30073;BME280;16897;52.422;13.678;2022-07-23T15:22:59;101195.06;;;26.40;45.50
30073;BME280;16897;52.422;13.678;2022-07-23T15:27:00;101218.41;;;26.54;45.41
30073;BME280;16897;52.422;13.678;2022-07-23T15:31:02;101278.84;;;26.88;45.59
30073;BME280;16897;52.422;13.678;2022-07-23T15:35:04;101236.34;;;26.54;45.32
30073;BME280;16897;52.422;13.678;2022-07-23T15:39:08;101208.50;;;26.32;45.26
30073;BME280;16897;52.422;13.678;2022-07-23T15:43:10;101287.28;;;26.77;45.31
30073;BME280;16897;52.422;13.678;2022-07-23T15:47:14;101244.22;;;26.55;45.13
30073;BME280;16897;52.422;13.678;2022-07-23T15:51:16;101234.63;;;26.61;45.21
30073;BME280;16897;52.422;13.678;2022-07-23T15:55:17;101213.72;;;26.56;45.42
30073;BME280;16897;52.422;13.678;2022-07-23T15:59:18;101265.59;;;26.86;45.21
30073;BME280;16897;52.422;13.678;2022-07-23T16:03:20;101237.25;;;26.69;45.23
30073;BME280;16897;52.422;13.678;2022-07-23T16:07:21;101207.56;;;26.47;45.04
30073;BME280;16897;52.422;13.678;2022-07-23T16:11:23;101276.47;;;26.93;44.97
30073;BME280;16897;52.422;13.678;2022-07-23T16:15:24;101240.09;;;26.67;44.82
30073;BME280;16897;52.422;13.678;2022-07-23T16:19:26;101217.22;;;26.57;44.72
30073;BME280;16897;52.422;13.678;2022-07-23T16:23:28;101282.59;;;27.02;44.84
30073;BME280;16897;52.422;13.678;2022-07-23T16:27:32;101287.53;;;27.13;44.59
30073;BME280;16897;52.422;13.678;2022-07-23T16:31:34;101298.25;;;27.13;44.31
30073;BME280;16897;52.422;13.678;2022-07-23T16:35:36;101294.06;;;27.10;44.48
30073;BME280;16897;52.422;13.678;2022-07-23T16:39:37;101292.06;;;27.12;44.50
30073;BME280;16897;52.422;13.678;2022-07-23T16:43:38;101247.19;;;26.83;44.78
30073;BME280;16897;52.422;13.678;2022-07-23T16:47:40;101282.13;;;26.98;44.23
30073;BME280;16897;52.422;13.678;2022-07-23T16:51:41;101282.47;;;26.95;44.63
30073;BME280;16897;52.422;13.678;2022-07-23T16:55:43;101277.34;;;26.85;44.36
30073;BME280;16897;52.422;13.678;2022-07-23T16:59:44;101286.94;;;26.80;43.75
30073;BME280;16897;52.422;13.678;2022-07-23T17:03:46;101296.09;;;26.85;44.63
30073;BME280;16897;52.422;13.678;2022-07-23T17:07:49;101285.81;;;26.74;43.96
30073;BME280;16897;52.422;13.678;2022-07-23T17:11:50;101292.88;;;26.67;44.05
30073;BME280;16897;52.422;13.678;2022-07-23T17:15:53;101312.28;;;26.69;44.10
30073;BME280;16897;52.422;13.678;2022-07-23T17:19:55;101318.69;;;26.60;44.18
30073;BME280;16897;52.422;13.678;2022-07-23T17:23:56;101292.31;;;26.40;43.87
30073;BME280;16897;52.422;13.678;2022-07-23T17:27:58;101309.50;;;26.46;44.09
30073;BME280;16897;52.422;13.678;2022-07-23T17:32:00;101289.50;;;26.34;44.09
30073;BME280;16897;52.422;13.678;2022-07-23T17:36:02;101296.00;;;26.39;43.82
30073;BME280;16897;52.422;13.678;2022-07-23T17:40:04;101318.41;;;26.46;43.92
30073;BME280;16897;52.422;13.678;2022-07-23T17:44:06;101324.09;;;26.43;43.87
30073;BME280;16897;52.422;13.678;2022-07-23T17:48:07;101323.13;;;26.36;43.64
30073;BME280;16897;52.422;13.678;2022-07-23T17:52:09;101316.00;;;26.20;43.47
30073;BME280;16897;52.422;13.678;2022-07-23T17:56:10;101306.66;;;26.08;43.77
30073;BME280;16897;52.422;13.678;2022-07-23T18:00:13;101333.75;;;26.13;43.80
30073;BME280;16897;52.422;13.678;2022-07-23T18:04:15;101325.25;;;26.01;43.71
30073;BME280;16897;52.422;13.678;2022-07-23T18:08:17;101309.91;;;25.87;43.80
30073;BME280;16897;52.422;13.678;2022-07-23T18:12:18;101305.72;;;25.68;43.80
30073;BME280;16897;52.422;13.678;2022-07-23T18:16:19;101338.84;;;25.83;43.44
30073;BME280;16897;52.422;13.678;2022-07-23T18:20:21;101343.19;;;25.76;43.90
30073;BME280;16897;52.422;13.678;2022-07-23T18:24:22;101335.66;;;25.64;43.38
30073;BME280;16897;52.422;13.678;2022-07-23T18:28:25;101337.16;;;25.58;43.60
30073;BME280;16897;52.422;13.678;2022-07-23T18:32:27;101310.78;;;25.30;43.50
30073;BME280;16897;52.422;13.678;2022-07-23T18:36:28;101368.94;;;25.53;43.42
30073;BME280;16897;52.422;13.678;2022-07-23T18:40:30;101357.88;;;25.39;43.26
30073;BME280;16897;52.422;13.678;2022-07-23T18:44:31;101373.75;;;25.33;43.74
30073;BME280;16897;52.422;13.678;2022-07-23T18:48:32;101368.91;;;25.20;43.32
30073;BME280;16897;52.422;13.678;2022-07-23T18:52:34;101373.03;;;25.06;43.02
30073;BME280;16897;52.422;13.678;2022-07-23T18:56:36;101307.56;;;24.51;43.36
30073;BME280;16897;52.422;13.678;2022-07-23T19:00:37;101397.34;;;24.95;43.36
30073;BME280;16897;52.422;13.678;2022-07-23T19:04:39;101386.31;;;24.82;43.32
30073;BME280;16897;52.422;13.678;2022-07-23T19:08:41;101344.88;;;24.43;43.21
30073;BME280;16897;52.422;13.678;2022-07-23T19:12:43;101333.63;;;24.23;43.55
30073;BME280;16897;52.422;13.678;2022-07-23T19:16:44;101349.66;;;24.23;43.67
30073;BME280;16897;52.422;13.678;2022-07-23T19:20:45;101389.09;;;24.38;43.57
30073;BME280;16897;52.422;13.678;2022-07-23T19:24:47;101375.66;;;24.21;43.58
30073;BME280;16897;52.422;13.678;2022-07-23T19:28:49;101391.84;;;24.20;43.41
30073;BME280;16897;52.422;13.678;2022-07-23T19:32:50;101370.84;;;23.99;43.03
30073;BME280;16897;52.422;13.678;2022-07-23T19:36:52;101417.31;;;24.14;43.09
30073;BME280;16897;52.422;13.678;2022-07-23T19:40:54;101393.81;;;23.92;43.11
30073;BME280;16897;52.422;13.678;2022-07-23T19:44:55;101407.84;;;23.94;43.55
30073;BME280;16897;52.422;13.678;2022-07-23T19:48:56;101411.13;;;23.88;43.04
30073;BME280;16897;52.422;13.678;2022-07-23T19:52:58;101433.06;;;23.99;43.14
30073;BME280;16897;52.422;13.678;2022-07-23T19:56:59;101420.03;;;23.78;42.85
30073;BME280;16897;52.422;13.678;2022-07-23T20:01:01;101392.69;;;23.58;43.22
30073;BME280;16897;52.422;13.678;2022-07-23T20:05:04;101369.28;;;23.34;43.49
30073;BME280;16897;52.422;13.678;2022-07-23T20:09:05;101394.06;;;23.45;43.39
30073;BME280;16897;52.422;13.678;2022-07-23T20:13:07;101422.75;;;23.51;43.31
30073;BME280;16897;52.422;13.678;2022-07-23T20:17:09;101502.50;;;23.90;43.08
30073;BME280;16897;52.422;13.678;2022-07-23T20:21:10;101459.97;;;23.52;43.49
30073;BME280;16897;52.422;13.678;2022-07-23T20:25:12;101431.88;;;23.30;43.18
30073;BME280;16897;52.422;13.678;2022-07-23T20:29:14;101474.72;;;23.47;43.58
30073;BME280;16897;52.422;13.678;2022-07-23T20:33:17;101505.69;;;23.57;43.10
30073;BME280;16897;52.422;13.678;2022-07-23T20:37:19;101480.81;;;23.39;43.01
30073;BME280;16897;52.422;13.678;2022-07-23T20:41:21;101517.63;;;23.53;43.18
30073;BME280;16897;52.422;13.678;2022-07-23T20:45:22;101514.72;;;23.47;43.10
30073;BME280;16897;52.422;13.678;2022-07-23T20:49:24;101535.44;;;23.53;43.45
30073;BME280;16897;52.422;13.678;2022-07-23T20:53:25;101519.94;;;23.38;43.22
30073;BME280;16897;52.422;13.678;2022-07-23T20:57:29;101479.56;;;23.06;43.41
30073;BME280;16897;52.422;13.678;2022-07-23T21:01:30;101538.22;;;23.33;43.16
30073;BME280;16897;52.422;13.678;2022-07-23T21:05:32;101554.34;;;23.32;43.44
30073;BME280;16897;52.422;13.678;2022-07-23T21:09:34;101443.88;;;22.51;43.15
30073;BME280;16897;52.422;13.678;2022-07-23T21:13:35;101487.94;;;22.73;43.35
30073;BME280;16897;52.422;13.678;2022-07-23T21:17:37;101485.63;;;22.61;43.40
30073;BME280;16897;52.422;13.678;2022-07-23T21:21:39;101503.66;;;22.67;43.26
30073;BME280;16897;52.422;13.678;2022-07-23T21:25:40;101568.50;;;23.05;43.34
30073;BME280;16897;52.422;13.678;2022-07-23T21:29:42;101451.91;;;22.32;43.16